createdAt,value
2018-06-15T00:00:10.315Z,91.40
2018-06-15T00:02:38.512Z,91.30
2018-06-15T00:05:06.869Z,91.10
2018-06-15T00:07:35.041Z,91.20
2018-06-15T00:10:03.219Z,91.20
2018-06-15T00:12:32.205Z,91.20
2018-06-15T00:15:01.212Z,91.50
2018-06-15T00:19:57.385Z,91.10
2018-06-15T00:22:25.617Z,91.00
2018-06-15T00:24:53.817Z,91.00
2018-06-15T00:27:22.015Z,91.10
2018-06-15T00:29:50.208Z,91.10
2018-06-15T00:32:18.506Z,91.10
2018-06-15T00:34:46.676Z,91.00
2018-06-15T00:37:14.840Z,90.80
2018-06-15T00:39:43.052Z,90.80
2018-06-15T00:42:11.275Z,90.80
2018-06-15T00:44:39.448Z,90.90
2018-06-15T00:47:07.844Z,90.80
2018-06-15T00:49:36.116Z,90.90
2018-06-15T00:52:04.339Z,90.90
2018-06-15T00:54:32.567Z,91.10
2018-06-15T00:57:12.075Z,91.20
2018-06-15T00:59:40.483Z,91.20
2018-06-15T01:02:08.709Z,91.20
2018-06-15T01:04:36.920Z,91.30
2018-06-15T01:07:05.254Z,91.30
2018-06-15T01:09:33.424Z,91.40
2018-06-15T01:12:01.649Z,91.70
2018-06-15T01:14:29.837Z,91.80
2018-06-15T01:16:58.024Z,91.90
2018-06-15T01:19:26.299Z,92.10
2018-06-15T01:21:54.478Z,92.60
2018-06-15T01:24:22.708Z,92.20
2018-06-15T01:26:50.953Z,92.20
2018-06-15T01:29:19.153Z,92.30
2018-06-15T01:31:47.347Z,92.40
2018-06-15T01:34:15.571Z,92.40
2018-06-15T01:36:43.747Z,92.40
2018-06-15T01:39:12.317Z,92.50
2018-06-15T01:41:40.547Z,92.50
2018-06-15T01:44:08.763Z,92.60
2018-06-15T01:46:36.956Z,92.60
2018-06-15T01:49:05.308Z,92.60
2018-06-15T01:51:33.500Z,92.70
2018-06-15T01:54:01.688Z,92.70
2018-06-15T01:56:29.891Z,92.60
2018-06-15T01:58:58.175Z,92.60
2018-06-15T02:01:26.449Z,92.60
2018-06-15T02:03:54.855Z,92.70
2018-06-15T02:06:23.084Z,92.60
2018-06-15T02:08:51.281Z,92.40
2018-06-15T02:13:47.454Z,92.50
2018-06-15T02:16:15.668Z,92.70
2018-06-15T02:18:43.882Z,92.70
2018-06-15T02:21:12.096Z,92.70
2018-06-15T02:23:40.565Z,92.70
2018-06-15T02:26:08.764Z,92.80
2018-06-15T02:28:36.984Z,92.70
2018-06-15T02:31:05.189Z,92.80
2018-06-15T02:33:33.404Z,92.90
2018-06-15T02:36:01.635Z,93.00
2018-06-15T02:38:29.886Z,93.10
2018-06-15T02:40:58.123Z,93.20
2018-06-15T02:43:26.533Z,93.10
2018-06-15T02:45:56.846Z,92.90
2018-06-15T02:48:26.597Z,92.90
2018-06-15T02:50:54.824Z,92.90
2018-06-15T02:53:23.553Z,92.80
2018-06-15T02:55:52.129Z,92.70
2018-06-15T02:58:20.926Z,92.60
2018-06-15T03:03:17.084Z,92.40
2018-06-15T03:05:46.184Z,92.30
2018-06-15T03:08:14.408Z,92.50
2018-06-15T03:10:42.785Z,92.40
2018-06-15T03:13:11.057Z,92.50
2018-06-15T03:15:39.455Z,92.50
2018-06-15T03:18:07.694Z,92.60
2018-06-15T03:20:35.944Z,92.80
2018-06-15T03:23:04.177Z,92.90
2018-06-15T03:25:32.384Z,93.00
2018-06-15T03:28:00.596Z,93.00
2018-06-15T03:30:28.816Z,92.80
2018-06-15T03:32:57.026Z,92.70
2018-06-15T03:35:25.277Z,92.90
2018-06-15T03:37:53.514Z,93.00
2018-06-15T03:40:21.900Z,92.90
2018-06-15T03:42:50.152Z,92.90
2018-06-15T03:45:18.394Z,92.90
2018-06-15T03:47:46.594Z,92.90
2018-06-15T03:50:14.804Z,93.00
2018-06-15T03:52:43.021Z,93.00
2018-06-15T03:57:39.245Z,93.00
2018-06-15T04:00:07.498Z,92.90
2018-06-15T04:02:35.764Z,92.90
2018-06-15T04:05:03.989Z,92.80
2018-06-15T04:07:32.240Z,92.70
2018-06-15T04:10:00.640Z,92.60
2018-06-15T04:12:28.898Z,92.60
2018-06-15T04:14:57.172Z,92.70
2018-06-15T04:17:25.479Z,92.80
2018-06-15T04:19:53.803Z,92.90
2018-06-15T04:22:22.037Z,92.90
2018-06-15T04:24:50.299Z,92.90
2018-06-15T04:27:18.575Z,92.90
2018-06-15T04:29:46.834Z,92.80
2018-06-15T04:32:15.088Z,92.70
2018-06-15T04:34:43.333Z,92.50
2018-06-15T04:37:11.604Z,92.60
2018-06-15T04:39:39.951Z,92.70
2018-06-15T04:44:36.225Z,92.40
2018-06-15T04:47:04.761Z,92.20
2018-06-15T04:49:33.031Z,92.10
2018-06-15T04:52:01.418Z,92.20
2018-06-15T04:54:30.058Z,92.20
2018-06-15T04:56:58.304Z,92.20
2018-06-15T04:59:26.580Z,92.30
2018-06-15T05:01:54.810Z,92.20
2018-06-15T05:04:23.098Z,92.20
2018-06-15T05:06:51.379Z,92.30
2018-06-15T05:09:19.883Z,92.40
2018-06-15T05:11:48.120Z,92.30
2018-06-15T05:14:16.388Z,92.30
2018-06-15T05:16:44.625Z,92.40
2018-06-15T05:19:12.881Z,92.40
2018-06-15T05:21:41.176Z,92.30
2018-06-15T05:24:09.452Z,92.00
2018-06-15T05:26:37.772Z,91.60
2018-06-15T05:29:06.040Z,91.70
2018-06-15T05:31:34.324Z,91.50
2018-06-15T05:34:02.637Z,91.50
2018-06-15T05:36:30.904Z,91.30
2018-06-15T05:38:59.346Z,91.20
2018-06-15T05:41:27.652Z,91.20
2018-06-15T05:43:55.924Z,91.20
2018-06-15T05:46:24.169Z,91.00
2018-06-15T05:48:52.883Z,90.90
2018-06-15T05:51:21.276Z,90.80
2018-06-15T05:53:49.541Z,90.70
2018-06-15T05:56:17.797Z,90.80
2018-06-15T05:58:47.371Z,90.30
2018-06-15T06:01:15.627Z,90.20
2018-06-15T06:03:43.904Z,90.30
2018-06-15T06:06:12.141Z,90.40
2018-06-15T06:08:40.571Z,90.20
2018-06-15T06:11:09.325Z,90.00
2018-06-15T06:13:37.640Z,89.80
2018-06-15T06:16:05.918Z,89.70
2018-06-15T06:18:34.211Z,89.60
2018-06-15T06:21:02.786Z,89.30
2018-06-15T06:23:31.132Z,90.00
2018-06-15T06:25:59.472Z,90.00
2018-06-15T06:28:27.730Z,88.90
2018-06-15T06:30:56.012Z,88.60
2018-06-15T06:33:24.309Z,88.10
2018-06-15T06:35:52.716Z,87.70
2018-06-15T06:38:21.004Z,87.70
2018-06-15T06:40:49.247Z,87.60
2018-06-15T06:43:17.511Z,87.70
2018-06-15T06:45:45.724Z,87.50
2018-06-15T06:48:13.947Z,87.50
2018-06-15T06:50:42.199Z,87.10
2018-06-15T06:53:10.448Z,86.50
2018-06-15T06:55:38.697Z,86.60
2018-06-15T06:58:06.922Z,86.60
2018-06-15T07:00:35.364Z,86.00
2018-06-15T07:03:03.582Z,85.70
2018-06-15T07:05:31.812Z,85.60
2018-06-15T07:08:00.105Z,85.40
2018-06-15T07:12:56.360Z,84.10
2018-06-15T07:15:24.644Z,83.40
2018-06-15T07:17:52.872Z,82.80
2018-06-15T07:20:21.139Z,82.60
2018-06-15T07:22:49.371Z,82.10
2018-06-15T07:25:17.890Z,82.10
2018-06-15T07:27:46.167Z,81.90
2018-06-15T07:30:14.492Z,81.50
2018-06-15T07:32:42.736Z,80.90
2018-06-15T07:35:11.017Z,80.50
2018-06-15T07:37:39.353Z,80.90
2018-06-15T07:40:07.580Z,81.60
2018-06-15T07:42:35.847Z,81.80
2018-06-15T07:45:04.203Z,81.50
2018-06-15T07:47:32.436Z,81.00
2018-06-15T07:50:01.076Z,80.50
2018-06-15T07:52:29.394Z,79.90
2018-06-15T07:54:57.637Z,79.40
2018-06-15T07:57:25.860Z,78.90
2018-06-15T07:59:54.243Z,79.10
2018-06-15T08:02:22.539Z,79.00
2018-06-15T08:04:50.771Z,78.80
2018-06-15T08:07:19.040Z,78.40
2018-06-15T08:09:47.311Z,78.00
2018-06-15T08:12:15.663Z,77.30
2018-06-15T08:14:43.941Z,76.50
2018-06-15T08:17:12.239Z,75.80
2018-06-15T08:19:40.473Z,75.30
2018-06-15T08:22:08.732Z,74.50
2018-06-15T08:24:36.980Z,73.60
2018-06-15T08:27:05.247Z,72.70
2018-06-15T08:29:33.557Z,72.00
2018-06-15T08:32:01.867Z,71.50
2018-06-15T08:34:30.249Z,71.10
2018-06-15T08:36:58.689Z,69.80
2018-06-15T08:39:26.948Z,69.60
2018-06-15T08:41:55.191Z,69.90
2018-06-15T08:44:23.593Z,68.80
2018-06-15T08:46:51.848Z,66.90
2018-06-15T08:49:20.125Z,66.10
2018-06-15T08:51:48.445Z,65.70
2018-06-15T08:54:16.718Z,65.80
2018-06-15T08:56:44.946Z,65.30
2018-06-15T08:59:13.279Z,64.50
2018-06-15T09:01:41.594Z,63.90
2018-06-15T09:04:09.836Z,61.20
2018-06-15T09:06:38.092Z,61.00
2018-06-15T09:09:07.729Z,61.00
2018-06-15T09:14:04.084Z,62.20
2018-06-15T09:21:28.600Z,62.20
2018-06-15T09:23:56.810Z,61.50
2018-06-15T09:26:25.036Z,60.00
2018-06-15T09:28:53.308Z,60.00
2018-06-15T09:31:21.552Z,60.70
2018-06-15T09:33:49.812Z,60.40
2018-06-15T09:36:18.114Z,60.20
2018-06-15T09:38:46.387Z,60.20
2018-06-15T09:41:14.665Z,60.30
2018-06-15T09:43:42.939Z,60.00
2018-06-15T09:46:11.257Z,59.70
2018-06-15T09:48:42.155Z,59.20
2018-06-15T09:51:10.679Z,59.40
2018-06-15T09:53:38.950Z,58.20
2018-06-15T09:56:07.212Z,58.50
2018-06-15T09:58:35.468Z,58.60
2018-06-15T10:01:08.076Z,58.60
2018-06-15T10:03:36.852Z,58.70
2018-06-15T10:06:05.132Z,57.50
2018-06-15T10:08:33.731Z,55.80
2018-06-15T10:11:02.137Z,55.10
2018-06-15T10:13:30.419Z,54.30
2018-06-15T10:15:58.686Z,53.40
2018-06-15T10:18:26.965Z,53.60
2018-06-15T10:20:55.213Z,53.80
2018-06-15T10:23:23.473Z,54.10
2018-06-15T10:25:51.752Z,53.90
2018-06-15T10:28:20.000Z,54.00
2018-06-15T10:30:48.278Z,54.30
2018-06-15T10:33:16.511Z,54.30
2018-06-15T10:35:44.756Z,53.90
2018-06-15T10:38:13.001Z,52.60
2018-06-15T10:40:41.447Z,51.80
2018-06-15T10:43:09.697Z,52.20
2018-06-15T10:45:37.941Z,51.70
2018-06-15T10:48:06.192Z,51.10
2018-06-15T10:50:34.436Z,51.20
2018-06-15T10:53:02.696Z,51.40
2018-06-15T10:55:30.939Z,51.50
2018-06-15T10:57:59.184Z,50.80
2018-06-15T11:00:27.444Z,50.00
2018-06-15T11:02:55.667Z,50.10
2018-06-15T11:05:23.904Z,49.70
2018-06-15T11:07:52.156Z,49.30
2018-06-15T11:10:20.583Z,49.20
2018-06-15T11:12:48.815Z,49.30
2018-06-15T11:15:17.097Z,49.10
2018-06-15T11:17:45.453Z,48.20
2018-06-15T11:20:13.725Z,47.70
2018-06-15T11:22:42.134Z,46.90
2018-06-15T11:25:10.375Z,46.10
2018-06-15T11:27:38.612Z,46.40
2018-06-15T11:30:06.891Z,46.40
2018-06-15T11:32:35.233Z,46.50
2018-06-15T11:35:03.452Z,45.80
2018-06-15T11:37:31.729Z,46.20
2018-06-15T11:40:00.108Z,45.20
2018-06-15T11:42:28.433Z,45.20
2018-06-15T11:44:56.673Z,45.30
2018-06-15T11:47:24.944Z,45.80
2018-06-15T11:49:53.238Z,45.40
2018-06-15T11:52:21.492Z,44.90
2018-06-15T11:54:49.764Z,44.70
2018-06-15T11:57:18.056Z,45.00
2018-06-15T11:59:46.307Z,44.90
2018-06-15T12:02:14.541Z,43.70
2018-06-15T12:04:42.807Z,43.70
2018-06-15T12:07:11.080Z,43.60
2018-06-15T12:12:07.807Z,43.70
2018-06-15T12:14:36.057Z,42.20
2018-06-15T12:17:04.368Z,41.30
2018-06-15T12:19:32.718Z,41.10
2018-06-15T12:22:00.984Z,40.90
2018-06-15T12:24:29.247Z,40.60
2018-06-15T12:26:57.512Z,40.20
2018-06-15T12:29:25.792Z,40.40
2018-06-15T12:31:54.008Z,40.80
2018-06-15T12:34:22.260Z,40.40
2018-06-15T12:36:50.957Z,40.70
2018-06-15T12:39:19.358Z,40.30
2018-06-15T12:41:47.634Z,40.90
2018-06-15T12:44:15.974Z,41.60
2018-06-15T12:46:44.224Z,41.00
2018-06-15T12:49:12.508Z,40.80
2018-06-15T12:51:40.783Z,40.90
2018-06-15T12:54:09.059Z,41.00
2018-06-15T12:56:37.363Z,41.00
2018-06-15T12:59:05.691Z,41.50
2018-06-15T13:01:33.910Z,40.60
2018-06-15T13:04:02.214Z,40.30
2018-06-15T13:06:30.477Z,40.00
2018-06-15T13:08:58.920Z,39.50
2018-06-15T13:11:27.174Z,38.80
2018-06-15T13:13:55.469Z,38.40
2018-06-15T13:16:23.748Z,38.30
2018-06-15T13:18:51.975Z,38.60
2018-06-15T13:21:20.252Z,39.10
2018-06-15T13:23:48.576Z,39.20
2018-06-15T13:26:16.723Z,39.10
2018-06-15T13:28:44.980Z,39.60
2018-06-15T13:31:13.232Z,39.60
2018-06-15T13:33:41.493Z,39.50
2018-06-15T13:36:09.788Z,38.70
2018-06-15T13:38:38.048Z,38.10
2018-06-15T13:41:06.308Z,38.30
2018-06-15T13:43:34.561Z,38.50
2018-06-15T13:46:02.788Z,38.70
2018-06-15T13:48:31.017Z,38.10
2018-06-15T13:50:59.272Z,37.80
2018-06-15T13:53:27.518Z,36.20
2018-06-15T13:55:55.740Z,34.90
2018-06-15T13:58:24.060Z,33.80
2018-06-15T14:03:20.441Z,30.00
2018-06-15T14:05:48.699Z,29.40
2018-06-15T14:08:16.945Z,28.40
2018-06-15T14:10:45.221Z,28.10
2018-06-15T14:13:13.462Z,26.10
2018-06-15T14:15:41.699Z,26.90
2018-06-15T14:18:09.973Z,26.10
2018-06-15T14:20:38.308Z,25.30
2018-06-15T14:23:06.527Z,25.10
2018-06-15T14:25:34.777Z,24.20
2018-06-15T14:28:03.034Z,23.50
2018-06-15T14:30:31.382Z,23.50
2018-06-15T14:32:59.640Z,23.30
2018-06-15T14:35:28.065Z,24.30
2018-06-15T14:37:56.347Z,23.90
2018-06-15T14:40:24.636Z,22.90
2018-06-15T14:42:52.859Z,22.00
2018-06-15T14:45:21.144Z,21.40
2018-06-15T14:47:49.384Z,21.30
2018-06-15T14:50:17.723Z,20.70
2018-06-15T14:52:45.959Z,22.00
2018-06-15T14:55:14.226Z,21.80
2018-06-15T14:57:42.476Z,21.90
2018-06-15T15:02:38.994Z,21.50
2018-06-15T15:05:07.712Z,21.40
2018-06-15T15:07:36.108Z,20.10
2018-06-15T15:10:05.444Z,19.70
2018-06-15T15:12:34.379Z,19.70
2018-06-15T15:15:03.056Z,19.60
2018-06-15T15:17:31.588Z,19.50
2018-06-15T15:19:59.928Z,20.00
2018-06-15T15:22:28.192Z,19.60
2018-06-15T15:24:56.664Z,19.50
2018-06-15T15:27:25.391Z,19.00
2018-06-15T15:29:54.099Z,18.50
2018-06-15T15:32:22.600Z,18.40
2018-06-15T15:34:50.942Z,18.40
2018-06-15T15:37:19.577Z,18.20
2018-06-15T15:39:48.575Z,18.90
2018-06-15T15:42:16.931Z,19.10
2018-06-15T15:44:45.583Z,19.00
2018-06-15T15:47:14.610Z,18.70
2018-06-15T15:49:43.296Z,18.90
2018-06-15T15:52:11.875Z,19.10
2018-06-15T15:54:40.620Z,19.40
2018-06-15T15:57:09.044Z,19.70
2018-06-15T15:59:37.562Z,19.80
2018-06-15T16:02:06.323Z,19.90
2018-06-15T16:04:34.989Z,20.20
2018-06-15T16:07:03.539Z,20.80
2018-06-15T16:09:32.351Z,21.30
2018-06-15T16:12:00.591Z,21.90
2018-06-15T16:14:29.219Z,22.30
2018-06-15T16:16:57.896Z,22.80
2018-06-15T16:19:26.648Z,23.30
2018-06-15T16:21:54.955Z,24.10
2018-06-15T16:24:24.008Z,24.50
2018-06-15T16:26:52.602Z,24.80
2018-06-15T16:29:22.090Z,25.10
2018-06-15T16:31:50.921Z,25.50
2018-06-15T16:34:19.436Z,25.70
2018-06-15T16:36:47.766Z,26.30
2018-06-15T16:39:16.731Z,26.50
2018-06-15T16:41:45.559Z,26.60
2018-06-15T16:44:13.821Z,26.30
2018-06-15T16:46:42.083Z,26.30
2018-06-15T16:49:10.312Z,26.40
2018-06-15T16:54:06.652Z,27.10
2018-06-15T16:56:34.938Z,27.30
2018-06-15T17:01:32.037Z,28.00
2018-06-15T17:04:00.456Z,28.40
2018-06-15T17:06:28.836Z,28.00
2018-06-15T17:08:57.151Z,28.50
2018-06-15T17:11:26.081Z,28.50
2018-06-15T17:13:55.059Z,28.60
2018-06-15T17:16:24.851Z,28.50
2018-06-15T17:21:22.267Z,28.40
2018-06-15T17:26:19.571Z,28.60
2018-06-15T17:28:49.078Z,28.50
2018-06-15T17:31:18.321Z,28.10
2018-06-15T17:33:46.559Z,28.00
2018-06-15T17:36:15.686Z,28.70
2018-06-15T17:41:13.078Z,29.10
2018-06-15T17:43:41.865Z,29.50
2018-06-15T17:46:10.407Z,30.00
2018-06-15T17:48:38.764Z,30.10
2018-06-15T17:53:36.378Z,29.50
2018-06-15T17:56:04.600Z,29.20
2018-06-15T17:58:32.872Z,29.00
2018-06-15T18:01:01.144Z,28.70
2018-06-15T18:03:29.402Z,28.50
2018-06-15T18:05:57.672Z,28.20
2018-06-15T18:08:25.973Z,28.50
2018-06-15T18:10:54.241Z,29.10
2018-06-15T18:13:22.489Z,29.70
2018-06-15T18:15:50.747Z,31.00
2018-06-15T18:18:19.001Z,31.40
2018-06-15T18:20:47.416Z,31.90
2018-06-15T18:23:15.753Z,32.30
2018-06-15T18:25:43.989Z,33.00
2018-06-15T18:28:12.233Z,33.40
2018-06-15T18:30:40.508Z,33.90
2018-06-15T18:33:08.780Z,34.40
2018-06-15T18:35:37.008Z,34.90
2018-06-15T18:38:05.452Z,35.30
2018-06-15T18:40:33.835Z,35.70
2018-06-15T18:43:02.090Z,36.20
2018-06-15T18:45:30.390Z,36.30
2018-06-15T18:47:58.703Z,36.30
2018-06-15T18:50:26.991Z,36.40
2018-06-15T18:52:55.232Z,36.50
2018-06-15T18:55:24.395Z,36.80
2018-06-15T18:57:52.691Z,37.00
2018-06-15T19:00:21.508Z,37.20
2018-06-15T19:02:50.575Z,37.50
2018-06-15T19:05:25.379Z,37.70
2018-06-15T19:07:53.802Z,38.00
2018-06-15T19:10:22.070Z,37.90
2018-06-15T19:12:50.339Z,38.00
2018-06-15T19:15:18.630Z,38.30
2018-06-15T19:17:46.914Z,38.60
2018-06-15T19:20:15.248Z,39.10
2018-06-15T19:22:43.672Z,39.40
2018-06-15T19:25:11.916Z,39.70
2018-06-15T19:27:40.423Z,40.10
2018-06-15T19:30:09.360Z,40.20
2018-06-15T19:32:37.600Z,40.70
2018-06-15T19:35:05.846Z,41.10
2018-06-15T19:42:36.667Z,41.80
2018-06-15T19:45:05.082Z,42.10
2018-06-15T19:47:33.236Z,42.50
2018-06-15T19:50:01.610Z,42.70
2018-06-15T19:52:30.023Z,42.80
2018-06-15T19:54:58.535Z,43.20
2018-06-15T19:57:26.787Z,43.60
2018-06-15T19:59:55.060Z,43.90
2018-06-15T20:02:23.321Z,44.20
2018-06-15T20:04:51.615Z,44.50
2018-06-15T20:07:19.848Z,44.70
2018-06-15T20:09:48.137Z,45.50
2018-06-15T20:12:16.391Z,45.20
2018-06-15T20:14:45.504Z,45.40
2018-06-15T20:17:13.799Z,45.60
2018-06-15T20:19:42.056Z,45.90
2018-06-15T20:22:10.319Z,46.10
2018-06-15T20:24:38.546Z,46.20
2018-06-15T20:27:07.140Z,46.40
2018-06-15T20:29:35.431Z,46.60
2018-06-15T20:32:03.672Z,46.80
2018-06-15T20:34:31.929Z,47.00
2018-06-15T20:37:00.540Z,47.10
2018-06-15T20:39:28.791Z,47.20
2018-06-15T20:41:57.049Z,47.40
2018-06-15T20:46:53.282Z,47.90
2018-06-15T20:49:22.287Z,48.10
2018-06-15T20:51:50.616Z,48.20
2018-06-15T20:54:19.289Z,48.40
2018-06-15T20:56:47.557Z,48.50
2018-06-15T20:59:15.804Z,48.80
2018-06-15T21:04:12.080Z,49.00
2018-06-15T21:06:40.339Z,49.20
2018-06-15T21:09:09.539Z,49.30
2018-06-15T21:11:37.887Z,49.50
2018-06-15T21:14:06.196Z,49.80
2018-06-15T21:16:34.504Z,49.90
2018-06-15T21:19:02.752Z,50.20
2018-06-15T21:21:31.013Z,50.50
2018-06-15T21:23:59.271Z,50.70
2018-06-15T21:26:27.559Z,51.00
2018-06-15T21:28:56.135Z,51.20
2018-06-15T21:31:24.601Z,51.30
2018-06-15T21:33:52.884Z,51.60
2018-06-15T21:36:21.155Z,51.70
2018-06-15T21:38:49.424Z,51.80
2018-06-15T21:41:17.723Z,52.00
2018-06-15T21:43:45.972Z,52.10
2018-06-15T21:46:14.224Z,52.20
2018-06-15T21:48:42.459Z,52.30
2018-06-15T21:51:10.754Z,52.50
2018-06-15T21:53:39.043Z,52.70
2018-06-15T21:56:07.309Z,53.10
2018-06-15T21:58:35.568Z,53.20
2018-06-15T22:01:03.808Z,53.50
2018-06-15T22:03:32.085Z,53.70
2018-06-15T22:06:00.389Z,53.90
2018-06-15T22:08:28.692Z,54.10
2018-06-15T22:10:56.955Z,54.20
2018-06-15T22:13:25.212Z,54.30
2018-06-15T22:15:53.695Z,54.60
2018-06-15T22:18:21.994Z,54.80
2018-06-15T22:20:50.235Z,55.10
2018-06-15T22:23:18.488Z,55.30
2018-06-15T22:25:46.828Z,55.40
2018-06-15T22:28:15.096Z,55.70
2018-06-15T22:30:43.335Z,55.80
2018-06-15T22:33:11.620Z,56.00
2018-06-15T22:35:39.823Z,56.20
2018-06-15T22:38:08.104Z,56.30
2018-06-15T22:40:36.532Z,56.50
2018-06-15T22:43:04.828Z,56.60
2018-06-15T22:45:33.092Z,56.70
2018-06-15T22:48:01.341Z,56.90
2018-06-15T22:50:29.588Z,56.90
2018-06-15T22:52:57.840Z,56.80
2018-06-15T22:57:54.104Z,57.10
2018-06-15T23:00:24.144Z,57.00
2018-06-15T23:02:52.404Z,57.10
2018-06-15T23:05:20.652Z,57.20
2018-06-15T23:07:48.955Z,57.20
2018-06-15T23:10:17.284Z,57.10
2018-06-15T23:12:45.542Z,57.10
2018-06-15T23:15:13.813Z,57.10
2018-06-15T23:17:42.067Z,57.10
2018-06-15T23:20:10.328Z,57.00
2018-06-15T23:22:39.166Z,57.00
2018-06-15T23:27:35.792Z,57.00
2018-06-15T23:30:04.465Z,57.00
2018-06-15T23:32:32.737Z,56.90
2018-06-15T23:35:00.993Z,56.90
2018-06-15T23:37:29.264Z,56.90
2018-06-15T23:39:57.628Z,56.90
2018-06-15T23:42:25.921Z,56.90
2018-06-15T23:44:54.160Z,56.90
2018-06-15T23:47:22.409Z,56.80
2018-06-15T23:49:50.637Z,56.80
2018-06-15T23:52:18.902Z,56.70
2018-06-15T23:54:47.390Z,56.70
2018-06-15T23:57:15.647Z,56.70
2018-06-15T23:59:43.929Z,57.00
